Burdaard, Netherlands
Current Conditions -  °F | °C
As of 7:55 AM on Saturday 25 Oct 2014 (Local Time) from EHLW Reporting Station
Broken Clouds Broken Clouds  
Wind Chill: 52°   Ceiling: 5300
Heat Index: 52°   Visibility: 6mi
Dew Point: 52°   Wind: 3mph
Humidity: 100%   Direction: 240°WSW
Pressure: 29.94"   Gusts: NA
Location:  53.29°N, 5.88°E
Report Text: EHLW 250555Z AUTO 24003KT 9999 FEW040 BKN053 11/11 Q1014 BLU
Loading
Personal Weather Stations






























Interactive Weather Map
Tropical Storm Tracking
New forecast layout! Learn more

10-Day Weather Forecast

Advertisements
Track Severe Weather on mobile